Time;durP1;ratioP1;P1;durP2;ratioP2;P2;SDS_P1;SDS_P2;PMS_P1;PMS_P2;Temp;Humidity;BMP_temperature;BMP_pressure;BME280_temperature;BME280_humidity;BME280_pressure;Samples;Min_cycle;Max_cycle;Signal;HPM_P1;HPM_P2
2022/08/31 00:04:45;;;;;;;4.03;3.83;;;35.80;47.10;;;;;;5104563;28;20485;-64
2022/08/31 00:07:18;;;;;;;4.53;4.23;;;35.80;45.40;;;;;;5103566;28;20583;-64
2022/08/31 00:09:50;;;;;;;4.13;3.83;;;35.80;43.10;;;;;;5104475;28;20440;-64
2022/08/31 00:12:21;;;;;;;4.77;4.27;;;35.70;45.20;;;;;;5104489;28;20455;-67
2022/08/31 00:14:52;;;;;;;4.33;3.87;;;35.60;44.40;;;;;;5104400;28;20449;-65
2022/08/31 00:17:23;;;;;;;4.00;3.70;;;35.60;45.60;;;;;;5104397;28;20505;-65
2022/08/31 00:19:54;;;;;;;4.00;3.70;;;35.60;45.70;;;;;;5104175;28;20453;-65
2022/08/31 00:22:26;;;;;;;4.57;4.27;;;35.60;43.80;;;;;;5103851;28;20574;-66
2022/08/31 00:24:57;;;;;;;4.37;3.97;;;35.70;45.10;;;;;;5104364;28;20485;-67
2022/08/31 00:27:28;;;;;;;4.40;4.07;;;35.50;46.00;;;;;;5104051;28;20451;-64
2022/08/31 00:29:59;;;;;;;4.03;3.73;;;35.50;47.00;;;;;;5103984;28;20438;-66
2022/08/31 00:32:30;;;;;;;4.40;4.10;;;35.50;45.60;;;;;;5094331;28;20442;-64
2022/08/31 00:35:01;;;;;;;4.23;3.93;;;35.50;44.90;;;;;;5083997;28;20504;-65
2022/08/31 00:37:34;;;;;;;3.90;3.60;;;35.50;47.10;;;;;;5083026;28;20455;-66
2022/08/31 00:40:06;;;;;;;5.10;3.63;;;35.50;46.10;;;;;;5083504;28;20452;-67
2022/08/31 00:42:37;;;;;;;3.93;3.70;;;35.30;48.50;;;;;;5083315;28;20554;-67
2022/08/31 00:45:10;;;;;;;4.57;4.27;;;35.20;50.30;;;;;;5083254;28;20493;-67
2022/08/31 00:47:40;;;;;;;4.00;3.70;;;35.00;44.80;;;;;;5083370;28;20442;-66
2022/08/31 00:50:14;;;;;;;4.17;3.87;;;34.90;49.70;;;;;;5083454;28;20453;-66
2022/08/31 00:52:50;;;;;;;3.87;3.67;;;34.90;48.40;;;;;;5082971;28;20901;-66
2022/08/31 00:55:24;;;;;;;4.57;4.17;;;34.80;50.60;;;;;;5083533;28;20511;-66
2022/08/31 00:57:57;;;;;;;4.33;4.03;;;34.70;48.80;;;;;;5083381;28;20462;-66
2022/08/31 01:00:29;;;;;;;4.63;4.30;;;34.60;49.60;;;;;;5083343;28;20455;-66
2022/08/31 01:03:02;;;;;;;4.87;4.37;;;34.60;49.10;;;;;;5083301;28;20431;-66
2022/08/31 01:05:34;;;;;;;4.40;4.10;;;34.80;45.80;;;;;;5083655;28;20481;-66
2022/08/31 01:08:08;;;;;;;4.30;3.90;;;34.80;49.80;;;;;;5082561;28;20931;-66
2022/08/31 01:10:42;;;;;;;4.47;4.10;;;34.80;48.20;;;;;;5083322;28;20439;-66
2022/08/31 01:13:14;;;;;;;4.57;4.17;;;34.90;47.00;;;;;;5083149;28;20793;-66
2022/08/31 01:15:50;;;;;;;14.23;13.03;;;34.80;47.00;;;;;;5083146;28;20455;-66
2022/08/31 01:18:24;;;;;;;20.90;19.37;;;34.80;47.10;;;;;;5084709;28;20542;-66
2022/08/31 01:21:04;;;;;;;20.27;18.83;;;34.80;47.70;;;;;;5086719;28;20443;-66
2022/08/31 01:23:41;;;;;;;11.37;10.57;;;34.80;46.00;;;;;;5087351;28;20929;-66
2022/08/31 01:26:16;;;;;;;24.67;22.97;;;34.70;49.30;;;;;;5087014;28;20504;-66
2022/08/31 01:28:46;;;;;;;7.00;6.50;;;34.50;47.50;;;;;;5087283;28;20450;-66
2022/08/31 01:31:23;;;;;;;5.60;5.20;;;34.50;47.30;;;;;;5087240;28;20450;-66
2022/08/31 01:33:55;;;;;;;5.03;4.63;;;34.40;49.70;;;;;;5086874;28;20447;-66
2022/08/31 01:36:27;;;;;;;4.80;4.50;;;34.30;50.30;;;;;;5086441;28;20434;-67
2022/08/31 01:39:00;;;;;;;4.53;4.23;;;34.10;52.20;;;;;;5087163;28;20423;-66
2022/08/31 01:41:32;;;;;;;4.87;4.53;;;33.90;51.10;;;;;;5086392;28;20546;-66
2022/08/31 01:44:03;;;;;;;5.40;5.00;;;33.90;51.30;;;;;;5086434;28;20479;-66
2022/08/31 01:46:33;;;;;;;5.57;5.17;;;33.70;52.40;;;;;;5086489;28;20494;-66
2022/08/31 01:49:05;;;;;;;6.63;6.13;;;33.60;52.00;;;;;;5086818;28;20488;-66
2022/08/31 01:51:36;;;;;;;34.23;30.77;;;33.50;53.80;;;;;;5086185;28;20462;-66
2022/08/31 01:54:09;;;;;;;7.27;6.67;;;33.40;53.60;;;;;;5086686;28;20443;-66
2022/08/31 01:56:42;;;;;;;5.80;5.30;;;33.20;54.40;;;;;;5086829;28;20452;-66
2022/08/31 01:59:14;;;;;;;7.17;6.47;;;33.20;54.30;;;;;;5086953;28;20446;-66
2022/08/31 02:01:48;;;;;;;6.13;5.70;;;33.00;56.40;;;;;;5086360;28;20447;-66
2022/08/31 02:04:21;;;;;;;7.57;6.87;;;32.70;56.90;;;;;;5087149;28;20513;-66
2022/08/31 02:06:53;;;;;;;5.40;4.90;;;32.60;58.80;;;;;;5086263;28;20477;-66
2022/08/31 02:09:27;;;;;;;4.00;3.70;;;32.40;54.80;;;;;;5086948;28;20864;-66
2022/08/31 02:11:58;;;;;;;4.33;3.67;;;32.40;54.90;;;;;;5086355;28;20456;-66
2022/08/31 02:14:29;;;;;;;3.50;3.30;;;32.40;54.00;;;;;;5086563;28;20459;-66
2022/08/31 02:17:01;;;;;;;3.63;3.23;;;32.40;51.90;;;;;;5086590;28;20451;-66
2022/08/31 02:19:31;;;;;;;3.47;3.17;;;32.50;52.70;;;;;;5086710;28;20461;-65
2022/08/31 02:22:02;;;;;;;3.33;3.00;;;32.40;52.00;;;;;;5085896;28;20456;-65
2022/08/31 02:24:35;;;;;;;3.30;3.10;;;32.40;50.60;;;;;;5086505;28;20455;-65
2022/08/31 02:27:06;;;;;;;3.63;3.37;;;32.40;50.50;;;;;;5086361;28;20806;-66
2022/08/31 02:29:37;;;;;;;3.90;3.50;;;32.40;50.30;;;;;;5085655;28;20832;-66
2022/08/31 02:32:07;;;;;;;3.80;3.50;;;32.10;51.50;;;;;;5085939;28;20453;-65
2022/08/31 02:34:48;;;;;;;3.40;3.20;;;32.00;51.10;;;;;;5086292;28;20452;-65
2022/08/31 02:37:19;;;;;;;3.63;3.33;;;32.00;50.70;;;;;;5085951;28;20533;-65
2022/08/31 02:39:52;;;;;;;2.80;2.60;;;32.00;51.20;;;;;;5086656;28;20454;-65
2022/08/31 02:42:23;;;;;;;3.70;3.40;;;32.00;51.40;;;;;;5085627;28;20477;-66
2022/08/31 02:44:59;;;;;;;3.10;2.90;;;31.80;52.50;;;;;;5085906;28;20475;-66
2022/08/31 02:47:30;;;;;;;3.13;2.87;;;31.60;52.40;;;;;;5085932;28;20489;-66
2022/08/31 02:50:03;;;;;;;3.70;3.40;;;31.40;54.30;;;;;;5086079;28;20454;-66
2022/08/31 02:52:33;;;;;;;4.23;3.43;;;31.20;54.00;;;;;;5085057;28;20802;-65
2022/08/31 02:55:07;;;;;;;3.60;3.30;;;31.10;56.40;;;;;;5086068;28;20611;-65
2022/08/31 02:57:37;;;;;;;4.10;3.47;;;30.80;56.20;;;;;;5085576;28;20445;-66
2022/08/31 03:00:10;;;;;;;4.73;4.33;;;30.60;57.00;;;;;;5085653;28;20475;-66
2022/08/31 03:02:41;;;;;;;4.50;4.10;;;30.40;58.40;;;;;;5085413;28;20452;-66
2022/08/31 03:05:12;;;;;;;4.70;3.60;;;30.20;59.10;;;;;;5085476;28;20476;-65
2022/08/31 03:07:44;;;;;;;4.67;4.30;;;30.00;58.20;;;;;;5085209;28;20489;-66
2022/08/31 03:10:17;;;;;;;4.87;4.47;;;29.90;59.60;;;;;;5085349;28;20422;-65
2022/08/31 03:12:48;;;;;;;5.60;5.10;;;29.70;61.90;;;;;;5085082;28;20540;-66
2022/08/31 03:15:19;;;;;;;5.00;4.60;;;29.50;64.30;;;;;;5085223;28;20817;-66
2022/08/31 03:17:50;;;;;;;5.90;5.40;;;29.40;65.90;;;;;;5085248;28;20454;-65
2022/08/31 03:20:23;;;;;;;5.20;4.70;;;29.20;66.60;;;;;;5085475;28;20824;-65
2022/08/31 03:22:54;;;;;;;3.60;3.40;;;29.00;64.50;;;;;;5084615;28;20803;-65
2022/08/31 03:25:29;;;;;;;3.70;3.33;;;28.90;62.90;;;;;;5085635;28;20468;-65
2022/08/31 03:28:00;;;;;;;3.90;3.60;;;28.90;63.50;;;;;;5084915;28;20494;-66
2022/08/31 03:30:31;;;;;;;4.10;3.77;;;28.80;63.60;;;;;;5085362;28;20464;-65
2022/08/31 03:33:02;;;;;;;3.63;3.33;;;28.70;63.90;;;;;;5084773;28;20487;-65
2022/08/31 03:35:33;;;;;;;5.67;4.50;;;28.70;64.10;;;;;;5085382;28;20461;-66
2022/08/31 03:38:04;;;;;;;4.07;3.77;;;28.60;65.20;;;;;;5084615;28;20440;-65
2022/08/31 03:40:36;;;;;;;4.07;3.70;;;28.50;65.60;;;;;;5084846;28;20466;-65
2022/08/31 03:43:10;;;;;;;4.47;4.07;;;28.40;66.70;;;;;;5084399;28;20528;-65
2022/08/31 03:45:43;;;;;;;4.50;4.10;;;28.40;67.30;;;;;;5084816;28;20456;-65
2022/08/31 03:48:14;;;;;;;5.03;4.10;;;28.30;67.20;;;;;;5084544;28;20489;-65
2022/08/31 03:50:45;;;;;;;5.93;5.43;;;28.20;68.20;;;;;;5084138;28;20449;-66
2022/08/31 03:53:15;;;;;;;4.50;4.10;;;28.20;68.80;;;;;;5084746;28;20448;-65
2022/08/31 03:55:59;;;;;;;4.77;4.27;;;28.10;68.00;;;;;;5084413;28;20439;-65
2022/08/31 03:58:31;;;;;;;5.40;4.63;;;28.00;68.70;;;;;;5084425;28;20447;-65
2022/08/31 04:01:02;;;;;;;4.63;4.23;;;27.90;68.60;;;;;;5084509;28;20459;-65
2022/08/31 04:03:33;;;;;;;5.00;4.10;;;27.90;69.00;;;;;;5083961;28;21004;-65
2022/08/31 04:06:07;;;;;;;4.97;4.47;;;27.80;69.60;;;;;;5083829;28;20456;-65
2022/08/31 04:08:39;;;;;;;4.43;4.00;;;27.80;69.00;;;;;;5084264;28;20471;-65
2022/08/31 04:11:15;;;;;;;4.43;4.03;;;27.70;69.60;;;;;;5084549;28;20904;-65
2022/08/31 04:13:54;;;;;;;4.53;4.13;;;27.70;69.60;;;;;;5083869;28;20451;-65
2022/08/31 04:16:25;;;;;;;4.10;3.77;;;27.70;69.70;;;;;;5083952;28;20813;-65
2022/08/31 04:18:56;;;;;;;4.20;3.80;;;27.60;70.40;;;;;;5084091;28;20452;-65
2022/08/31 04:21:29;;;;;;;4.47;4.07;;;27.50;70.10;;;;;;5083402;28;20482;-65
2022/08/31 04:24:02;;;;;;;4.47;4.00;;;27.50;70.40;;;;;;5083960;28;20446;-65
2022/08/31 04:26:36;;;;;;;4.23;3.87;;;27.40;70.90;;;;;;5084321;28;20443;-65
2022/08/31 04:29:08;;;;;;;4.10;3.80;;;27.30;71.50;;;;;;5084084;28;20509;-65
2022/08/31 04:31:42;;;;;;;4.87;4.47;;;27.30;71.60;;;;;;5083598;28;20535;-65
2022/08/31 04:34:13;;;;;;;4.80;4.40;;;27.30;71.90;;;;;;5083418;28;20451;-65
2022/08/31 04:36:44;;;;;;;4.50;4.20;;;27.30;72.30;;;;;;5083249;28;20451;-65
2022/08/31 04:39:15;;;;;;;4.73;4.33;;;27.20;74.30;;;;;;5083556;28;20537;-65
2022/08/31 04:41:50;;;;;;;4.50;4.10;;;27.00;75.10;;;;;;5083513;28;20424;-67
2022/08/31 04:44:21;;;;;;;4.83;4.53;;;26.90;79.60;;;;;;5101035;28;20485;-65
2022/08/31 04:46:52;;;;;;;4.77;4.37;;;26.80;78.00;;;;;;5103501;28;20476;-64
2022/08/31 04:49:22;;;;;;;5.10;4.70;;;26.70;78.40;;;;;;5103678;28;20446;-66
2022/08/31 04:51:53;;;;;;;5.27;4.77;;;26.60;78.10;;;;;;5103091;28;20454;-66
2022/08/31 04:54:24;;;;;;;4.93;4.53;;;26.50;79.80;;;;;;5102561;28;20545;-66
2022/08/31 04:56:57;;;;;;;4.83;4.23;;;26.50;79.80;;;;;;5103633;28;20430;-66
2022/08/31 04:59:28;;;;;;;4.50;4.10;;;26.40;80.70;;;;;;5103361;28;20449;-66
2022/08/31 05:01:59;;;;;;;4.90;4.40;;;26.30;80.70;;;;;;5103389;28;20860;-66
2022/08/31 05:04:30;;;;;;;3.93;3.63;;;26.30;80.00;;;;;;5103340;28;20446;-66
2022/08/31 05:07:01;;;;;;;5.50;4.70;;;26.40;79.70;;;;;;5103001;28;20451;-67
2022/08/31 05:09:32;;;;;;;4.23;3.73;;;26.50;79.30;;;;;;5103352;28;20496;-65
2022/08/31 05:12:04;;;;;;;4.90;4.50;;;26.40;81.00;;;;;;5103680;28;20450;-65
2022/08/31 05:14:35;;;;;;;5.50;4.33;;;26.30;83.90;;;;;;5103411;28;20474;-66
2022/08/31 05:17:06;;;;;;;5.03;4.70;;;26.10;84.90;;;;;;5103483;28;20453;-67
2022/08/31 05:19:44;;;;;;;5.70;5.20;;;26.00;85.70;;;;;;5103495;28;20454;-65
2022/08/31 05:22:15;;;;;;;4.93;4.17;;;25.90;85.40;;;;;;5102799;28;20449;-65
2022/08/31 05:24:46;;;;;;;4.67;4.27;;;25.90;86.20;;;;;;5103380;28;20456;-65
2022/08/31 05:27:19;;;;;;;5.20;4.77;;;25.80;90.00;;;;;;5103597;28;20448;-65
2022/08/31 05:29:50;;;;;;;4.93;4.53;;;25.70;90.20;;;;;;5093561;28;20803;-65
2022/08/31 05:32:20;;;;;;;5.07;4.57;;;25.60;90.50;;;;;;5083038;28;21302;-65
2022/08/31 05:34:54;;;;;;;5.00;4.60;;;25.60;91.00;;;;;;5083270;28;20449;-64
2022/08/31 05:37:25;;;;;;;4.20;3.80;;;25.50;92.00;;;;;;5082453;28;20449;-64
2022/08/31 05:39:55;;;;;;;4.60;4.20;;;25.40;92.70;;;;;;5083366;28;20447;-65
2022/08/31 05:42:28;;;;;;;4.93;4.53;;;25.30;93.10;;;;;;5083121;28;20476;-65
2022/08/31 05:44:59;;;;;;;4.80;4.30;;;25.30;93.40;;;;;;5082948;28;20445;-65
2022/08/31 05:47:30;;;;;;;4.80;4.40;;;25.30;93.70;;;;;;5082873;28;20450;-64
2022/08/31 05:50:02;;;;;;;5.53;5.03;;;25.20;93.90;;;;;;5083229;28;20445;-64
2022/08/31 05:52:37;;;;;;;5.07;4.40;;;25.10;95.00;;;;;;5082470;28;20445;-65
2022/08/31 05:55:08;;;;;;;5.20;4.70;;;25.00;95.90;;;;;;5083011;28;20461;-66
2022/08/31 05:57:40;;;;;;;4.93;4.53;;;25.00;96.40;;;;;;5083103;28;20513;-66
2022/08/31 06:00:12;;;;;;;4.30;4.00;;;25.00;96.60;;;;;;5083131;28;20448;-64
2022/08/31 06:02:43;;;;;;;4.63;4.17;;;24.90;97.40;;;;;;5082709;28;20445;-66
2022/08/31 06:05:14;;;;;;;5.40;4.90;;;24.80;97.90;;;;;;5084868;28;20459;-66
2022/08/31 06:07:45;;;;;;;4.70;4.27;;;24.70;98.80;;;;;;5085998;28;20457;-66
2022/08/31 06:10:17;;;;;;;5.90;4.53;;;24.70;99.90;;;;;;5086418;28;20448;-66
2022/08/31 06:12:49;;;;;;;4.57;4.10;;;24.60;99.90;;;;;;5086682;28;20425;-65
2022/08/31 06:15:21;;;;;;;4.63;4.33;;;24.60;99.90;;;;;;5086430;28;20966;-66
2022/08/31 06:17:51;;;;;;;4.93;4.30;;;24.60;99.90;;;;;;5086242;28;20449;-66
2022/08/31 06:20:22;;;;;;;4.50;4.03;;;24.60;99.90;;;;;;5086404;28;20458;-66
2022/08/31 06:22:55;;;;;;;5.43;4.80;;;24.60;99.90;;;;;;5085860;28;20494;-67
2022/08/31 06:25:26;;;;;;;5.00;4.50;;;24.60;99.90;;;;;;5086439;28;20831;-66
2022/08/31 06:28:00;;;;;;;5.83;4.27;;;24.40;99.90;;;;;;5086380;28;20444;-66
2022/08/31 06:30:31;;;;;;;4.50;4.10;;;24.30;99.90;;;;;;5086135;28;20455;-66
2022/08/31 06:33:02;;;;;;;4.93;3.90;;;24.40;99.90;;;;;;5086044;28;20444;-64
2022/08/31 06:35:33;;;;;;;5.03;4.50;;;24.40;99.90;;;;;;5086222;28;20454;-64
2022/08/31 06:38:03;;;;;;;3.90;3.60;;;24.40;99.90;;;;;;5085551;28;20823;-64
2022/08/31 06:40:34;;;;;;;3.60;3.20;;;24.30;99.90;;;;;;5086392;28;20428;-66
2022/08/31 06:43:07;;;;;;;4.13;3.73;;;24.20;99.90;;;;;;5085975;28;20532;-66
2022/08/31 06:45:38;;;;;;;4.10;3.70;;;24.20;99.90;;;;;;5085956;28;20447;-64
2022/08/31 06:48:09;;;;;;;3.87;3.50;;;24.20;99.90;;;;;;5085882;28;20457;-66
2022/08/31 06:50:40;;;;;;;3.70;3.40;;;24.10;99.90;;;;;;5086110;28;20458;-66
2022/08/31 06:53:11;;;;;;;4.50;3.90;;;24.00;99.90;;;;;;5085873;28;20460;-65
2022/08/31 06:55:41;;;;;;;3.70;3.40;;;24.00;99.90;;;;;;5085637;28;20444;-65
2022/08/31 06:58:14;;;;;;;3.90;3.60;;;24.00;99.90;;;;;;5085828;28;20438;-65
2022/08/31 07:00:47;;;;;;;4.70;4.30;;;24.00;99.90;;;;;;5085603;28;20965;-65
2022/08/31 07:03:31;;;;;;;3.90;3.60;;;23.90;99.90;;;;;;5085518;28;20455;-66
2022/08/31 07:06:07;;;;;;;3.67;3.37;;;23.90;99.90;;;;;;5084843;28;20997;-66
2022/08/31 07:08:38;;;;;;;3.70;3.40;;;23.90;99.90;;;;;;5085354;28;20487;-66
2022/08/31 07:11:13;;;;;;;3.97;3.50;;;23.80;99.90;;;;;;5085477;28;20432;-66
2022/08/31 07:13:46;;;;;;;4.57;3.47;;;23.80;99.90;;;;;;5085328;28;20444;-66
2022/08/31 07:16:19;;;;;;;3.23;2.93;;;23.80;99.90;;;;;;5084044;28;20454;-65
2022/08/31 07:18:51;;;;;;;4.30;3.90;;;23.80;99.90;;;;;;5085364;28;20945;-66
2022/08/31 07:21:24;;;;;;;4.13;3.80;;;23.80;99.90;;;;;;5084790;28;20447;-66
2022/08/31 07:23:55;;;;;;;3.60;3.30;;;23.70;99.90;;;;;;5085111;28;20985;-66
2022/08/31 07:26:28;;;;;;;4.30;3.90;;;23.70;99.90;;;;;;5085129;28;20448;-66
2022/08/31 07:29:08;;;;;;;4.60;4.20;;;23.70;99.90;;;;;;5084984;28;20490;-66
2022/08/31 07:31:43;;;;;;;4.47;3.70;;;23.70;99.90;;;;;;5084822;28;20509;-66
2022/08/31 07:34:15;;;;;;;4.40;4.00;;;23.70;99.90;;;;;;5084710;28;20453;-66
2022/08/31 07:42:27;;;;;;;3.90;3.50;;;23.60;99.90;;;;;;5084597;28;20499;-66
2022/08/31 07:45:04;;;;;;;4.10;3.70;;;23.50;99.90;;;;;;5084671;28;20807;-66
2022/08/31 07:47:44;;;;;;;3.60;3.30;;;23.50;99.90;;;;;;5084651;28;20450;-66
2022/08/31 07:50:16;;;;;;;4.60;3.67;;;23.50;99.90;;;;;;5084946;28;20494;-65
2022/08/31 07:52:52;;;;;;;3.93;3.53;;;23.40;99.90;;;;;;5084035;28;20810;-66
2022/08/31 07:55:25;;;;;;;3.57;3.23;;;23.30;99.90;;;;;;5083956;28;20452;-65
2022/08/31 07:57:56;;;;;;;3.13;2.93;;;23.20;99.90;;;;;;5084516;28;20451;-66
2022/08/31 08:00:31;;;;;;;3.97;3.50;;;23.10;99.90;;;;;;5084563;28;20443;-65
2022/08/31 08:03:10;;;;;;;4.10;3.50;;;23.10;99.90;;;;;;5083980;28;20451;-65
2022/08/31 08:05:42;;;;;;;3.90;3.60;;;23.10;99.90;;;;;;5083927;28;20454;-66
2022/08/31 08:08:13;;;;;;;3.37;3.17;;;23.10;99.90;;;;;;5084299;28;20444;-65
2022/08/31 08:10:47;;;;;;;8.73;3.77;;;23.00;99.90;;;;;;5084072;28;20982;-65
2022/08/31 08:13:21;;;;;;;4.87;3.30;;;23.00;99.90;;;;;;5083744;28;20450;-66
2022/08/31 08:15:54;;;;;;;3.77;3.20;;;23.00;99.90;;;;;;5083970;28;20439;-65
2022/08/31 08:18:25;;;;;;;4.03;3.73;;;23.00;99.90;;;;;;5083799;28;20491;-66
2022/08/31 08:20:56;;;;;;;3.13;2.83;;;22.90;99.90;;;;;;5083400;28;20444;-66
2022/08/31 08:23:27;;;;;;;3.63;3.33;;;22.80;99.90;;;;;;5083997;28;20438;-66
2022/08/31 08:26:00;;;;;;;4.07;3.70;;;22.80;99.90;;;;;;5083771;28;20522;-66
2022/08/31 08:28:31;;;;;;;3.60;3.30;;;22.70;99.90;;;;;;5084000;28;20448;-65
2022/08/31 08:31:17;;;;;;;3.87;3.57;;;22.70;99.90;;;;;;5083762;28;20532;-66
2022/08/31 08:33:48;;;;;;;4.20;2.80;;;22.70;99.90;;;;;;5083627;28;20449;-66
2022/08/31 08:36:20;;;;;;;3.43;3.13;;;22.70;99.90;;;;;;5083033;28;20439;-66
2022/08/31 08:38:52;;;;;;;3.10;2.80;;;22.70;99.90;;;;;;5083964;28;20457;-66
2022/08/31 08:41:25;;;;;;;3.80;3.50;;;22.60;99.90;;;;;;5083622;28;20953;-65
2022/08/31 08:43:59;;;;;;;3.50;3.20;;;22.60;99.90;;;;;;5083417;28;20481;-66
2022/08/31 08:46:38;;;;;;;3.40;3.10;;;22.50;99.90;;;;;;5083294;28;20451;-65
2022/08/31 08:49:20;;;;;;;3.37;3.07;;;22.50;99.90;;;;;;5083451;28;20447;-65
2022/08/31 08:51:57;;;;;;;3.07;2.80;;;22.50;99.90;;;;;;5082874;28;20467;-66
2022/08/31 08:54:33;;;;;;;4.13;2.93;;;22.50;99.90;;;;;;5083244;28;20428;-66
2022/08/31 08:57:11;;;;;;;3.37;3.07;;;22.50;99.90;;;;;;5083372;28;20816;-66
2022/08/31 08:59:43;;;;;;;3.70;3.30;;;22.40;99.90;;;;;;5083729;28;20443;-66
2022/08/31 09:02:19;;;;;;;3.23;2.93;;;22.30;99.90;;;;;;5083348;28;20475;-66
2022/08/31 09:05:20;;;;;;;3.13;2.83;;;22.20;99.90;;;;;;5083615;28;20443;-66
2022/08/31 09:08:16;;;;;;;3.17;2.97;;;22.20;99.90;;;;;;5082631;28;20461;-66
2022/08/31 09:11:00;;;;;;;4.10;3.30;;;22.20;99.90;;;;;;5083351;28;20490;-66
2022/08/31 09:13:39;;;;;;;3.17;2.87;;;22.10;99.90;;;;;;5082908;28;20434;-66
2022/08/31 09:16:21;;;;;;;3.40;3.10;;;22.10;99.90;;;;;;5083108;28;20444;-66
2022/08/31 09:18:56;;;;;;;3.80;2.90;;;22.00;99.90;;;;;;5083473;28;20779;-66
2022/08/31 09:21:31;;;;;;;3.80;3.40;;;22.00;99.90;;;;;;5082978;28;20433;-66
2022/08/31 09:24:04;;;;;;;3.43;3.13;;;22.00;99.90;;;;;;5083572;28;20438;-66
2022/08/31 09:26:53;;;;;;;4.20;3.40;;;22.00;99.90;;;;;;5082870;28;20443;-65
2022/08/31 09:29:25;;;;;;;3.47;3.17;;;21.90;99.90;;;;;;5083298;28;20443;-66
2022/08/31 09:32:04;;;;;;;3.00;2.80;;;21.90;99.90;;;;;;5082965;28;20462;-66
2022/08/31 09:34:39;;;;;;;3.43;3.17;;;21.90;99.90;;;;;;5083340;28;20451;-66
2022/08/31 09:37:16;;;;;;;4.93;4.53;;;21.80;99.90;;;;;;5082410;28;20451;-66
2022/08/31 09:39:49;;;;;;;4.87;3.70;;;21.80;99.90;;;;;;5084903;28;20453;-65
2022/08/31 09:42:29;;;;;;;3.53;3.10;;;21.90;99.90;;;;;;5086911;28;20458;-66
2022/08/31 09:45:06;;;;;;;4.20;3.60;;;21.80;99.90;;;;;;5086855;28;20459;-66
2022/08/31 09:47:46;;;;;;;3.20;2.90;;;21.70;99.90;;;;;;5086331;28;20511;-66
2022/08/31 09:50:35;;;;;;;3.10;2.90;;;21.60;99.90;;;;;;5087006;28;20491;-66
2022/08/31 09:56:16;;;;;;;3.57;3.17;;;21.60;99.90;;;;;;5086623;28;20455;-66
2022/08/31 09:58:49;;;;;;;3.70;3.20;;;21.50;99.90;;;;;;5086351;28;20463;-66
2022/08/31 10:01:37;;;;;;;3.50;3.20;;;21.40;99.90;;;;;;5086720;28;20423;-65
2022/08/31 10:04:19;;;;;;;4.00;3.60;;;21.40;99.90;;;;;;5086113;28;20418;-67
2022/08/31 10:06:58;;;;;;;3.27;3.00;;;21.40;99.90;;;;;;5086225;28;20427;-66
2022/08/31 10:09:36;;;;;;;3.80;3.40;;;21.30;99.90;;;;;;5086759;28;20446;-66
2022/08/31 10:12:12;;;;;;;3.60;2.80;;;21.30;99.90;;;;;;5086403;28;20487;-66
2022/08/31 10:14:49;;;;;;;3.33;3.03;;;21.30;99.90;;;;;;5086359;28;20459;-66
2022/08/31 10:17:25;;;;;;;3.27;2.90;;;21.20;99.90;;;;;;5086163;28;20454;-66
2022/08/31 10:20:07;;;;;;;4.00;3.60;;;21.20;99.90;;;;;;5086324;28;20474;-66
2022/08/31 10:22:42;;;;;;;3.90;3.43;;;21.10;99.90;;;;;;5085714;28;20439;-66
2022/08/31 10:25:20;;;;;;;3.60;3.30;;;21.10;99.90;;;;;;5086077;28;20417;-65
2022/08/31 10:27:57;;;;;;;3.63;3.30;;;21.10;99.90;;;;;;5085953;28;20519;-65
2022/08/31 10:30:37;;;;;;;6.63;3.40;;;21.10;99.90;;;;;;5086331;28;20490;-65
2022/08/31 10:33:17;;;;;;;3.00;2.80;;;21.00;99.90;;;;;;5086095;28;20513;-65
2022/08/31 10:35:56;;;;;;;3.40;3.00;;;21.00;99.90;;;;;;5085455;28;20429;-65
2022/08/31 10:38:35;;;;;;;3.50;3.20;;;21.00;99.90;;;;;;5085898;28;20947;-65
2022/08/31 10:41:13;;;;;;;3.10;2.80;;;20.90;99.90;;;;;;5085641;28;20977;-65
2022/08/31 10:43:52;;;;;;;3.27;2.97;;;20.90;99.90;;;;;;5085342;28;20906;-66
2022/08/31 10:46:23;;;;;;;3.50;3.20;;;20.90;99.90;;;;;;5085589;28;20422;-65
2022/08/31 10:48:58;;;;;;;3.43;3.13;;;20.80;99.90;;;;;;5085572;28;20426;-66
2022/08/31 10:51:35;;;;;;;3.13;2.67;;;20.70;99.90;;;;;;5083675;28;20502;-65
2022/08/31 10:54:27;;;;;;;3.70;3.40;;;20.70;99.90;;;;;;5085903;28;20432;-65
2022/08/31 10:57:09;;;;;;;3.77;3.47;;;20.70;99.90;;;;;;5085543;28;20585;-65
2022/08/31 10:59:54;;;;;;;3.30;3.10;;;20.60;99.90;;;;;;5085922;28;20447;-65
2022/08/31 11:02:54;;;;;;;4.13;3.20;;;20.60;99.90;;;;;;5085190;28;20437;-65
2022/08/31 11:05:34;;;;;;;3.67;3.30;;;20.50;99.90;;;;;;5085294;28;20448;-66
2022/08/31 11:08:33;;;;;;;3.00;2.80;;;20.50;99.90;;;;;;5084742;28;20439;-66
2022/08/31 11:11:11;;;;;;;4.10;3.40;;;20.40;99.90;;;;;;5075521;28;20487;-66
2022/08/31 11:14:00;;;;;;;3.27;2.97;;;20.40;99.90;;;;;;5085536;28;20428;-65
2022/08/31 11:16:48;;;;;;;3.17;2.97;;;20.40;99.90;;;;;;5085622;28;20434;-65
2022/08/31 11:19:49;;;;;;;3.60;3.40;;;20.30;99.90;;;;;;5084733;28;20430;-66
2022/08/31 11:22:43;;;;;;;3.23;2.90;;;20.20;99.90;;;;;;5084685;28;20414;-65
2022/08/31 11:25:46;;;;;;;4.13;3.50;;;20.30;99.90;;;;;;5079984;28;20502;-65
2022/08/31 11:28:31;;;;;;;5.63;3.40;;;20.20;99.90;;;;;;5084994;28;20421;-66
2022/08/31 11:31:07;;;;;;;6.93;3.43;;;20.20;99.90;;;;;;5084771;28;20472;-66
2022/08/31 11:33:39;;;;;;;4.10;3.33;;;20.20;99.90;;;;;;5085069;28;20473;-65
2022/08/31 11:36:50;;;;;;;4.20;3.53;;;20.10;99.90;;;;;;5084149;28;20444;-65
2022/08/31 11:39:37;;;;;;;3.60;3.30;;;20.10;99.90;;;;;;5084846;28;20477;-66
2022/08/31 11:42:31;;;;;;;4.10;3.67;;;20.00;99.90;;;;;;5084521;28;20765;-66
2022/08/31 11:45:06;;;;;;;5.03;3.67;;;20.10;99.90;;;;;;5084698;28;20806;-66
2022/08/31 11:47:45;;;;;;;3.33;3.03;;;19.90;99.90;;;;;;5084634;28;20416;-66
2022/08/31 11:50:55;;;;;;;3.70;3.40;;;19.90;99.90;;;;;;5085230;28;20433;-66
2022/08/31 11:53:35;;;;;;;3.13;2.83;;;20.00;99.90;;;;;;5084913;28;20417;-66
2022/08/31 11:56:06;;;;;;;4.10;3.80;;;19.80;99.90;;;;;;5084948;28;20410;-65
2022/08/31 11:58:41;;;;;;;3.37;3.00;;;19.80;99.90;;;;;;5084207;28;20796;-65
2022/08/31 12:01:38;;;;;;;3.60;3.30;;;19.80;99.90;;;;;;5084588;28;20451;-65
2022/08/31 12:04:46;;;;;;;3.23;2.80;;;19.80;99.90;;;;;;5084607;28;20425;-65
2022/08/31 12:07:25;;;;;;;10.80;3.93;;;19.80;99.90;;;;;;5083740;28;20422;-65
2022/08/31 12:10:34;;;;;;;3.40;3.10;;;19.70;99.90;;;;;;5084503;28;20430;-65
2022/08/31 12:13:26;;;;;;;3.93;3.47;;;19.80;99.90;;;;;;5084188;28;20469;-65
2022/08/31 12:16:26;;;;;;;4.13;3.70;;;19.70;99.90;;;;;;5084254;28;20454;-65
2022/08/31 12:25:10;;;;;;;5.17;3.27;;;19.60;99.90;;;;;;5084388;28;20444;-65
2022/08/31 12:27:50;;;;;;;3.97;3.60;;;19.60;99.90;;;;;;5083817;28;20496;-65
2022/08/31 12:30:24;;;;;;;4.27;2.93;;;19.60;99.90;;;;;;5084185;28;20454;-65
2022/08/31 12:33:02;;;;;;;4.83;3.87;;;19.60;99.90;;;;;;5084105;28;20453;-65
2022/08/31 12:35:34;;;;;;;4.87;4.00;;;19.50;99.90;;;;;;5084281;28;20434;-65
2022/08/31 12:38:07;;;;;;;4.20;3.80;;;19.50;99.90;;;;;;5083489;28;20460;-65
2022/08/31 12:40:44;;;;;;;4.43;4.03;;;19.50;99.90;;;;;;5083958;28;20471;-65
2022/08/31 12:43:18;;;;;;;6.03;3.97;;;19.40;99.90;;;;;;5083668;28;20453;-65
2022/08/31 12:46:17;;;;;;;5.40;4.30;;;19.40;99.90;;;;;;5083890;28;20448;-66
2022/08/31 12:49:10;;;;;;;4.37;4.00;;;19.40;99.90;;;;;;5083482;28;20449;-65
2022/08/31 12:51:48;;;;;;;3.17;2.97;;;19.50;99.90;;;;;;5083072;28;20993;-65
2022/08/31 12:54:54;;;;;;;3.10;2.90;;;19.40;99.90;;;;;;5084096;28;20405;-65
2022/08/31 12:57:41;;;;;;;5.60;3.83;;;19.40;99.90;;;;;;5075332;28;20451;-66
2022/08/31 13:00:19;;;;;;;6.00;3.27;;;19.30;99.90;;;;;;5083817;28;20454;-65
2022/08/31 13:02:54;;;;;;;6.63;3.63;;;19.30;99.90;;;;;;5083998;28;20398;-65
2022/08/31 13:05:28;;;;;;;3.60;3.10;;;19.20;99.90;;;;;;5083727;28;20449;-65
2022/08/31 13:08:00;;;;;;;4.20;3.73;;;19.30;99.90;;;;;;5083019;28;20429;-65
2022/08/31 13:10:34;;;;;;;4.13;3.83;;;19.20;99.90;;;;;;5083463;28;21022;-65
2022/08/31 13:13:07;;;;;;;3.87;3.53;;;19.20;99.90;;;;;;5083367;28;20462;-65
2022/08/31 13:15:40;;;;;;;5.50;3.90;;;19.20;99.90;;;;;;5082991;28;20490;-66
2022/08/31 13:18:12;;;;;;;7.60;3.77;;;19.10;99.90;;;;;;5083595;28;20440;-65
2022/08/31 13:20:45;;;;;;;4.33;3.80;;;19.10;99.90;;;;;;5082868;28;20454;-65
2022/08/31 13:23:27;;;;;;;3.73;3.40;;;19.00;99.90;;;;;;5083536;28;20451;-65
2022/08/31 13:26:02;;;;;;;4.13;3.83;;;19.10;99.90;;;;;;5083436;28;20792;-66
2022/08/31 13:28:34;;;;;;;3.53;3.20;;;19.10;99.90;;;;;;5083407;28;20443;-65
2022/08/31 13:31:08;;;;;;;4.27;3.87;;;19.10;99.90;;;;;;5083254;28;20436;-66
2022/08/31 13:33:40;;;;;;;4.10;3.33;;;19.00;99.90;;;;;;5083658;28;20495;-65
2022/08/31 13:36:15;;;;;;;4.43;3.77;;;19.00;99.90;;;;;;5082887;28;20786;-65
2022/08/31 13:38:52;;;;;;;3.93;3.57;;;19.00;99.90;;;;;;5083288;28;20426;-65
2022/08/31 13:41:27;;;;;;;3.47;3.17;;;19.00;99.90;;;;;;5083154;28;20481;-65
2022/08/31 13:44:00;;;;;;;3.67;3.37;;;19.00;99.90;;;;;;5082811;28;20465;-65
2022/08/31 13:46:35;;;;;;;4.80;3.80;;;18.90;99.90;;;;;;5083106;28;20458;-65